createdAt,value
2023-01-13T00:01:53.990Z,99448.88
2023-01-13T00:04:23.294Z,99444.47
2023-01-13T00:06:52.409Z,99442.11
2023-01-13T00:09:21.803Z,99441.34
2023-01-13T00:11:58.374Z,99434.05
2023-01-13T00:14:39.350Z,99440.21
2023-01-13T00:17:12.102Z,99437.19
2023-01-13T00:19:41.375Z,99441.38
2023-01-13T00:22:10.689Z,99442.86
2023-01-13T00:24:42.644Z,99441.91
2023-01-13T00:27:11.950Z,99439.19
2023-01-13T00:29:41.191Z,99443.41
2023-01-13T00:32:10.579Z,99437.13
2023-01-13T00:34:39.640Z,99440.48
2023-01-13T00:37:12.676Z,99442.11
2023-01-13T00:39:45.240Z,99433.61
2023-01-13T00:42:32.133Z,99434.24
2023-01-13T00:45:01.062Z,99433.77
2023-01-13T00:47:33.966Z,99434.20
2023-01-13T00:50:03.356Z,99439.65
2023-01-13T00:52:36.609Z,99437.71
2023-01-13T00:55:10.211Z,99437.75
2023-01-13T00:57:39.661Z,99432.40
2023-01-13T01:00:11.887Z,99430.36
2023-01-13T01:02:44.297Z,99419.55
2023-01-13T01:05:14.048Z,99410.62
2023-01-13T01:07:43.266Z,99413.90
2023-01-13T01:10:16.223Z,99414.52
2023-01-13T01:12:45.350Z,99406.46
2023-01-13T01:15:14.455Z,99410.59
2023-01-13T01:17:43.541Z,99403.77
2023-01-13T01:20:14.589Z,99409.11
2023-01-13T01:22:44.162Z,99408.62
2023-01-13T01:25:13.349Z,99402.04
2023-01-13T01:27:42.698Z,99400.06
2023-01-13T01:30:14.612Z,99400.78
2023-01-13T01:32:47.340Z,99397.98
2023-01-13T01:35:16.876Z,99399.23
2023-01-13T01:37:46.290Z,99397.05
2023-01-13T01:40:19.272Z,99392.19
2023-01-13T01:43:07.409Z,99382.61
2023-01-13T01:45:38.982Z,99378.16
2023-01-13T01:48:09.928Z,99384.08
2023-01-13T01:50:43.683Z,99380.00
2023-01-13T01:53:24.156Z,99375.23
2023-01-13T01:55:53.613Z,99374.56
2023-01-13T01:58:27.002Z,99370.33
2023-01-13T02:00:56.026Z,99368.77
2023-01-13T02:03:25.701Z,99364.16
2023-01-13T02:05:57.863Z,99358.95
2023-01-13T02:08:27.536Z,99357.52
2023-01-13T02:11:08.538Z,99357.23
2023-01-13T02:13:38.159Z,99359.13
2023-01-13T02:16:17.488Z,99361.19
2023-01-13T02:18:57.871Z,99358.06
2023-01-13T02:21:56.091Z,99351.05
2023-01-13T02:24:56.376Z,99348.12
2023-01-13T02:27:51.385Z,99339.27
2023-01-13T02:30:50.022Z,99332.16
2023-01-13T02:33:54.471Z,99334.15
2023-01-13T02:36:37.463Z,99332.98
2023-01-13T02:39:23.405Z,99335.09
2023-01-13T02:42:15.865Z,99331.08
2023-01-13T02:44:53.328Z,99333.70
2023-01-13T02:47:25.380Z,99329.66
2023-01-13T02:49:59.535Z,99325.54
2023-01-13T02:52:39.087Z,99328.92
2023-01-13T02:55:12.623Z,99327.42
2023-01-13T02:57:47.065Z,99327.54
2023-01-13T03:00:22.426Z,99330.35
2023-01-13T03:02:54.198Z,99333.33
2023-01-13T03:05:24.989Z,99336.77
2023-01-13T03:08:17.888Z,99340.17
2023-01-13T03:11:04.959Z,99346.48
2023-01-13T03:14:13.163Z,99349.23
2023-01-13T03:16:54.027Z,99344.58
2023-01-13T03:19:31.330Z,99335.88
2023-01-13T03:22:12.335Z,99333.73
2023-01-13T03:24:47.740Z,99330.45
2023-01-13T03:27:25.044Z,99326.76
2023-01-13T03:30:00.918Z,99323.85
2023-01-13T03:32:40.217Z,99328.48
2023-01-13T03:35:20.008Z,99329.25
2023-01-13T03:38:00.024Z,99326.94
2023-01-13T03:40:39.274Z,99335.23
2023-01-13T03:43:43.831Z,99333.03
2023-01-13T03:46:21.655Z,99331.28
2023-01-13T03:48:57.027Z,99324.52
2023-01-13T03:51:33.425Z,99330.02
2023-01-13T03:54:11.331Z,99325.30
2023-01-13T03:56:45.825Z,99325.02
2023-01-13T03:59:27.036Z,99324.77
2023-01-13T04:02:11.311Z,99318.09
2023-01-13T04:04:49.115Z,99309.14
2023-01-13T04:07:27.188Z,99303.20
2023-01-13T04:10:10.185Z,99310.97
2023-01-13T04:13:03.786Z,99314.40
2023-01-13T04:15:46.967Z,99315.06
2023-01-13T04:18:19.114Z,99317.02
2023-01-13T04:20:50.356Z,99311.50
2023-01-13T04:23:23.210Z,99310.42
2023-01-13T04:25:53.837Z,99304.84
2023-01-13T04:28:22.924Z,99305.53
2023-01-13T04:30:52.370Z,99310.31
2023-01-13T04:33:22.185Z,99314.23
2023-01-13T04:35:52.882Z,99313.04
2023-01-13T04:38:22.511Z,99308.98
2023-01-13T04:40:51.464Z,99307.66
2023-01-13T04:43:20.683Z,99305.71
2023-01-13T04:45:49.857Z,99299.61
2023-01-13T04:48:19.172Z,99297.94
2023-01-13T04:50:48.134Z,99293.52
2023-01-13T04:53:18.243Z,99290.88
2023-01-13T04:55:49.144Z,99293.52
2023-01-13T04:58:18.799Z,99298.88
2023-01-13T05:00:51.920Z,99303.02
2023-01-13T05:03:21.051Z,99301.61
2023-01-13T05:05:53.507Z,99302.27
2023-01-13T05:08:25.073Z,99304.21
2023-01-13T05:10:54.377Z,99306.05
2023-01-13T05:13:55.557Z,99311.52
2023-01-13T05:16:43.126Z,99303.45
2023-01-13T05:19:12.757Z,99304.70
2023-01-13T05:22:00.244Z,99302.55
2023-01-13T05:24:53.869Z,99301.88
2023-01-13T05:27:23.827Z,99298.27
2023-01-13T05:29:53.280Z,99299.66
2023-01-13T05:32:23.409Z,99300.06
2023-01-13T05:34:56.002Z,99299.74
2023-01-13T05:37:26.422Z,99300.98
2023-01-13T05:40:14.629Z,99297.03
2023-01-13T05:43:09.951Z,99294.36
2023-01-13T05:45:39.281Z,99293.38
2023-01-13T05:48:11.618Z,99294.82
2023-01-13T05:50:40.567Z,99297.59
2023-01-13T05:53:13.275Z,99296.34
2023-01-13T05:55:43.534Z,99291.80
2023-01-13T05:58:12.124Z,99283.08
2023-01-13T06:00:41.993Z,99284.96
2023-01-13T06:03:12.368Z,99275.65
2023-01-13T06:05:44.538Z,99267.48
2023-01-13T06:08:13.745Z,99270.88
2023-01-13T06:10:43.145Z,99284.67
2023-01-13T06:13:12.058Z,99292.27
2023-01-13T06:15:43.657Z,99300.76
2023-01-13T06:18:12.586Z,99305.44
2023-01-13T06:20:42.370Z,99303.38
2023-01-13T06:23:15.076Z,99297.36
2023-01-13T06:25:52.312Z,99295.73
2023-01-13T06:28:21.365Z,99311.79
2023-01-13T06:30:55.084Z,99312.18
2023-01-13T06:33:38.373Z,99310.87
2023-01-13T06:36:13.776Z,99317.55
2023-01-13T06:38:46.760Z,99314.73
2023-01-13T06:41:17.040Z,99315.42
2023-01-13T06:43:46.156Z,99312.94
2023-01-13T06:46:15.492Z,99310.54
2023-01-13T06:48:44.975Z,99314.09
2023-01-13T06:51:14.556Z,99309.43
2023-01-13T06:53:46.120Z,99309.72
2023-01-13T06:56:16.038Z,99309.76
2023-01-13T06:58:45.084Z,99306.75
2023-01-13T07:01:14.924Z,99304.25
2023-01-13T07:03:44.537Z,99306.14
2023-01-13T07:06:13.754Z,99308.82
2023-01-13T07:08:43.428Z,99303.24
2023-01-13T07:11:13.330Z,99299.20
2023-01-13T07:14:07.271Z,99308.80
2023-01-13T07:16:37.146Z,99310.52
2023-01-13T07:19:05.539Z,99304.48
2023-01-13T07:21:38.010Z,99309.33
2023-01-13T07:24:15.416Z,99306.92
2023-01-13T07:26:44.427Z,99308.61
2023-01-13T07:29:14.023Z,99309.55
2023-01-13T07:31:42.926Z,99309.79
2023-01-13T07:34:15.916Z,99306.42
2023-01-13T07:36:48.181Z,99307.11
2023-01-13T07:39:17.758Z,99302.61
2023-01-13T07:42:07.073Z,99307.89
2023-01-13T07:44:36.561Z,99309.77
2023-01-13T07:47:11.149Z,99315.52
2023-01-13T07:49:43.351Z,99319.80
2023-01-13T07:52:13.060Z,99317.35
2023-01-13T07:54:42.142Z,99318.02
2023-01-13T07:57:12.644Z,99324.38
2023-01-13T07:59:43.519Z,99325.11
2023-01-13T08:02:14.137Z,99323.39
2023-01-13T08:04:48.393Z,99324.58
2023-01-13T08:07:18.279Z,99321.20
2023-01-13T08:09:49.850Z,99325.95
2023-01-13T08:12:37.780Z,99326.73
2023-01-13T08:15:16.713Z,99330.44
2023-01-13T08:17:46.107Z,99335.81
2023-01-13T08:20:17.247Z,99333.27
2023-01-13T08:22:47.086Z,99338.36
2023-01-13T08:25:17.396Z,99341.55
2023-01-13T08:27:49.422Z,99339.55
2023-01-13T08:30:20.057Z,99342.45
2023-01-13T08:32:50.805Z,99340.73
2023-01-13T08:35:21.445Z,99341.88
2023-01-13T08:37:54.448Z,99337.51
2023-01-13T08:40:27.489Z,99334.20
2023-01-13T08:43:19.011Z,99328.95
2023-01-13T08:45:57.501Z,99334.49
2023-01-13T08:48:39.631Z,99335.08
2023-01-13T08:51:08.751Z,99336.59
2023-01-13T08:53:40.329Z,99339.04
2023-01-13T08:56:12.660Z,99340.65
2023-01-13T08:58:43.758Z,99341.14
2023-01-13T09:01:18.149Z,99338.38
2023-01-13T09:03:47.810Z,99336.98
2023-01-13T09:06:17.368Z,99339.70
2023-01-13T09:08:47.045Z,99337.65
2023-01-13T09:11:37.829Z,99337.52
2023-01-13T09:14:10.053Z,99333.80
2023-01-13T09:16:39.631Z,99328.70
2023-01-13T09:19:08.765Z,99321.38
2023-01-13T09:21:43.945Z,99317.09
2023-01-13T09:24:13.632Z,99317.65
2023-01-13T09:26:46.703Z,99314.19
2023-01-13T09:29:18.600Z,99317.07
2023-01-13T09:31:47.556Z,99313.40
2023-01-13T09:34:37.372Z,99313.65
2023-01-13T09:37:16.717Z,99317.33
2023-01-13T09:39:46.351Z,99311.27
2023-01-13T09:42:40.152Z,99307.70
2023-01-13T09:45:21.796Z,99305.83
2023-01-13T09:48:01.983Z,99300.08
2023-01-13T09:51:06.004Z,99301.19
2023-01-13T09:53:54.224Z,99294.43
2023-01-13T09:56:24.242Z,99294.65
2023-01-13T09:58:58.560Z,99291.14
2023-01-13T10:01:46.616Z,99295.35
2023-01-13T10:04:27.923Z,99294.02
2023-01-13T10:07:13.660Z,99286.60
2023-01-13T10:09:50.924Z,99287.10
2023-01-13T10:12:42.567Z,99285.73
2023-01-13T10:15:17.524Z,99277.81
2023-01-13T10:17:53.415Z,99272.83
2023-01-13T10:20:26.855Z,99270.98
2023-01-13T10:23:09.141Z,99270.80
2023-01-13T10:25:53.201Z,99280.19
2023-01-13T10:28:23.649Z,99274.35
2023-01-13T10:30:53.519Z,99276.48
2023-01-13T10:33:26.973Z,99269.21
2023-01-13T10:36:00.425Z,99265.41
2023-01-13T10:38:39.555Z,99262.91
2023-01-13T10:41:45.125Z,99266.59
2023-01-13T10:44:16.691Z,99264.69
2023-01-13T10:46:55.243Z,99265.41
2023-01-13T10:49:42.909Z,99262.09
2023-01-13T10:52:29.113Z,99255.63
2023-01-13T10:54:59.044Z,99259.88
2023-01-13T10:57:29.049Z,99265.11
2023-01-13T10:59:57.056Z,99258.58
2023-01-13T11:02:30.197Z,99261.15
2023-01-13T11:05:24.949Z,99256.16
2023-01-13T11:07:57.473Z,99252.17
2023-01-13T11:10:30.783Z,99243.17
2023-01-13T11:13:10.350Z,99238.35
2023-01-13T11:15:48.110Z,99227.34
2023-01-13T11:18:29.002Z,99219.13
2023-01-13T11:21:12.537Z,99212.16
2023-01-13T11:23:48.197Z,99207.50
2023-01-13T11:26:53.780Z,99202.77
2023-01-13T11:29:28.572Z,99201.78
2023-01-13T11:32:14.557Z,99203.73
2023-01-13T11:34:48.653Z,99203.18
2023-01-13T11:37:23.641Z,99205.78
2023-01-13T11:40:09.487Z,99209.90
2023-01-13T11:42:46.123Z,99221.45
2023-01-13T11:45:22.143Z,99224.27
2023-01-13T11:47:56.760Z,99231.88
2023-01-13T11:50:34.054Z,99241.75
2023-01-13T11:53:23.307Z,99240.88
2023-01-13T11:56:04.162Z,99240.98
2023-01-13T11:59:04.702Z,99242.16
2023-01-13T12:01:48.881Z,99245.05
2023-01-13T12:04:28.619Z,99233.79
2023-01-13T12:07:13.905Z,99231.30
2023-01-13T12:09:57.309Z,99230.80
2023-01-13T12:12:44.460Z,99225.49
2023-01-13T12:15:42.213Z,99224.34
2023-01-13T12:18:38.513Z,99219.23
2023-01-13T12:21:21.319Z,99216.65
2023-01-13T12:24:13.181Z,99220.25
2023-01-13T12:26:53.841Z,99226.08
2023-01-13T12:29:30.923Z,99221.91
2023-01-13T12:32:02.563Z,99219.98
2023-01-13T12:35:03.225Z,99225.45
2023-01-13T12:37:44.705Z,99221.36
2023-01-13T12:40:26.509Z,99220.89
2023-01-13T12:43:22.009Z,99217.28
2023-01-13T12:45:51.511Z,99215.17
2023-01-13T12:49:04.921Z,99212.05
2023-01-13T12:52:06.831Z,99214.04
2023-01-13T12:55:13.648Z,99214.87
2023-01-13T12:58:03.353Z,99209.40
2023-01-13T13:00:58.698Z,99212.34
2023-01-13T13:03:45.977Z,99215.39
2023-01-13T13:06:24.833Z,99215.73
2023-01-13T13:09:05.704Z,99212.08
2023-01-13T13:12:04.754Z,99213.48
2023-01-13T13:15:07.971Z,99224.82
2023-01-13T13:18:01.935Z,99230.45
2023-01-13T13:20:54.016Z,99229.23
2023-01-13T13:24:00.030Z,99222.02
2023-01-13T13:26:54.718Z,99221.66
2023-01-13T13:29:49.114Z,99221.83
2023-01-13T13:32:58.767Z,99220.85
2023-01-13T13:35:51.344Z,99220.36
2023-01-13T13:39:16.979Z,99219.28
2023-01-13T13:42:10.677Z,99212.86
2023-01-13T13:45:09.283Z,99214.00
2023-01-13T13:47:40.733Z,99210.05
2023-01-13T13:50:14.858Z,99213.46
2023-01-13T13:52:54.042Z,99218.23
2023-01-13T13:55:25.854Z,99215.77
2023-01-13T13:57:57.698Z,99208.84
2023-01-13T14:00:30.054Z,99201.80
2023-01-13T14:03:01.741Z,99190.81
2023-01-13T14:05:32.165Z,99191.67
2023-01-13T14:08:02.950Z,99200.89
2023-01-13T14:10:44.408Z,99208.76
2023-01-13T14:13:22.043Z,99216.55
2023-01-13T14:15:57.415Z,99222.84
2023-01-13T14:18:32.744Z,99234.50
2023-01-13T14:21:18.708Z,99242.55
2023-01-13T14:23:54.991Z,99243.21
2023-01-13T14:26:30.264Z,99246.73
2023-01-13T14:29:02.062Z,99246.15
2023-01-13T14:31:32.601Z,99245.55
2023-01-13T14:34:31.077Z,99243.70
2023-01-13T14:37:00.252Z,99245.89
2023-01-13T14:39:38.904Z,99248.07
2023-01-13T14:42:15.571Z,99250.28
2023-01-13T14:44:49.604Z,99249.95
2023-01-13T14:47:27.344Z,99245.88
2023-01-13T14:50:02.637Z,99242.95
2023-01-13T14:52:34.054Z,99248.36
2023-01-13T14:55:30.537Z,99254.34
2023-01-13T14:58:31.845Z,99258.82
2023-01-13T15:01:29.561Z,99259.07
2023-01-13T15:04:24.899Z,99276.95
2023-01-13T15:06:57.084Z,99277.11
2023-01-13T15:09:29.569Z,99279.86
2023-01-13T15:11:59.822Z,99279.84
2023-01-13T15:14:39.923Z,99279.81
2023-01-13T15:17:20.704Z,99283.05
2023-01-13T15:19:50.360Z,99286.83
2023-01-13T15:22:18.685Z,99291.08
2023-01-13T15:24:50.954Z,99289.95
2023-01-13T15:27:25.893Z,99286.41
2023-01-13T15:29:54.922Z,99289.30
2023-01-13T15:32:23.738Z,99287.56
2023-01-13T15:34:55.544Z,99288.73
2023-01-13T15:37:25.029Z,99296.05
2023-01-13T15:39:54.095Z,99292.16
2023-01-13T15:42:41.176Z,99290.03
2023-01-13T15:45:32.546Z,99291.88
2023-01-13T15:48:02.822Z,99298.35
2023-01-13T15:50:32.261Z,99299.33
2023-01-13T15:53:02.890Z,99301.14
2023-01-13T15:55:41.745Z,99306.42
2023-01-13T15:58:14.153Z,99305.38
2023-01-13T16:00:46.236Z,99309.69
2023-01-13T16:03:16.198Z,99306.95
2023-01-13T16:05:48.853Z,99303.67
2023-01-13T16:08:23.473Z,99302.11
2023-01-13T16:10:52.927Z,99296.39
2023-01-13T16:13:22.184Z,99301.83
2023-01-13T16:15:52.138Z,99303.35
2023-01-13T16:18:25.056Z,99305.97
2023-01-13T16:20:54.747Z,99308.32
2023-01-13T16:23:24.381Z,99307.27
2023-01-13T16:25:53.628Z,99306.35
2023-01-13T16:28:27.599Z,99311.61
2023-01-13T16:31:00.269Z,99310.25
2023-01-13T16:33:32.283Z,99314.02
2023-01-13T16:36:10.687Z,99312.27
2023-01-13T16:38:45.034Z,99309.38
2023-01-13T16:41:17.303Z,99312.23
2023-01-13T16:43:46.509Z,99309.90
2023-01-13T16:46:25.492Z,99312.12
2023-01-13T16:49:04.012Z,99313.50
2023-01-13T16:51:42.324Z,99308.86
2023-01-13T16:54:14.459Z,99313.27
2023-01-13T16:56:47.019Z,99312.20
2023-01-13T16:59:17.199Z,99317.27
2023-01-13T17:01:45.485Z,99319.34
2023-01-13T17:04:18.223Z,99318.52
2023-01-13T17:06:57.610Z,99314.95
2023-01-13T17:09:28.479Z,99322.29
2023-01-13T17:11:57.808Z,99322.07
2023-01-13T17:14:27.386Z,99323.61
2023-01-13T17:16:57.628Z,99325.89
2023-01-13T17:19:27.622Z,99328.98
2023-01-13T17:21:55.699Z,99335.17
2023-01-13T17:24:25.550Z,99335.66
2023-01-13T17:26:55.013Z,99342.65
2023-01-13T17:29:28.546Z,99355.99
2023-01-13T17:31:57.664Z,99366.23
2023-01-13T17:34:27.649Z,99372.70
2023-01-13T17:36:56.125Z,99375.86
2023-01-13T17:39:30.165Z,99383.86
2023-01-13T17:41:59.615Z,99394.96
2023-01-13T17:44:28.324Z,99395.21
2023-01-13T17:46:57.925Z,99384.04
2023-01-13T17:49:27.051Z,99382.88
2023-01-13T17:51:59.743Z,99379.72
2023-01-13T17:54:29.548Z,99374.79
2023-01-13T17:57:01.710Z,99367.29
2023-01-13T17:59:31.389Z,99353.98
2023-01-13T18:02:04.585Z,99349.55
2023-01-13T18:04:42.698Z,99359.84
2023-01-13T18:07:12.251Z,99361.80
2023-01-13T18:09:47.310Z,99361.19
2023-01-13T18:12:16.748Z,99366.61
2023-01-13T18:14:49.489Z,99368.10
2023-01-13T18:17:19.133Z,99368.09
2023-01-13T18:20:13.095Z,99367.09
2023-01-13T18:23:00.748Z,99375.55
2023-01-13T18:25:48.243Z,99384.98
2023-01-13T18:28:19.830Z,99384.66
2023-01-13T18:30:49.666Z,99385.12
2023-01-13T18:33:18.294Z,99382.13
2023-01-13T18:35:51.106Z,99381.59
2023-01-13T18:38:20.368Z,99385.90
2023-01-13T18:40:51.931Z,99371.40
2023-01-13T18:43:21.646Z,99373.44
2023-01-13T18:45:51.029Z,99375.46
2023-01-13T18:48:23.319Z,99374.75
2023-01-13T18:50:53.418Z,99376.88
2023-01-13T18:53:22.429Z,99390.78
2023-01-13T18:55:51.462Z,99399.34
2023-01-13T18:58:21.078Z,99397.05
2023-01-13T19:00:50.461Z,99404.67
2023-01-13T19:03:29.848Z,99422.77
2023-01-13T19:06:05.432Z,99433.83
2023-01-13T19:08:36.762Z,99444.23
2023-01-13T19:11:13.133Z,99450.82
2023-01-13T19:13:42.369Z,99457.48
2023-01-13T19:16:12.147Z,99456.69
2023-01-13T19:18:44.068Z,99450.73
2023-01-13T19:21:14.041Z,99454.65
2023-01-13T19:23:46.681Z,99454.98
2023-01-13T19:26:16.789Z,99451.64
2023-01-13T19:28:50.062Z,99447.92
2023-01-13T19:31:22.432Z,99450.56
2023-01-13T19:33:54.418Z,99449.30
2023-01-13T19:36:23.457Z,99448.58
2023-01-13T19:38:52.710Z,99451.15
2023-01-13T19:41:40.401Z,99451.35
2023-01-13T19:44:33.860Z,99451.52
2023-01-13T19:47:03.725Z,99448.31
2023-01-13T19:49:42.193Z,99453.41
2023-01-13T19:52:14.261Z,99448.83
2023-01-13T19:54:47.150Z,99454.44
2023-01-13T19:57:17.218Z,99458.38
2023-01-13T19:59:48.000Z,99457.42
2023-01-13T20:02:27.277Z,99464.25
2023-01-13T20:04:58.989Z,99472.98
2023-01-13T20:07:34.531Z,99483.40
2023-01-13T20:10:04.579Z,99486.96
2023-01-13T20:12:35.662Z,99493.21
2023-01-13T20:15:14.904Z,99503.56
2023-01-13T20:17:44.347Z,99506.31
2023-01-13T20:20:18.008Z,99504.75
2023-01-13T20:22:49.153Z,99496.81
2023-01-13T20:25:18.521Z,99497.91
2023-01-13T20:27:48.263Z,99495.80
2023-01-13T20:30:17.651Z,99498.55
2023-01-13T20:32:46.860Z,99503.08
2023-01-13T20:35:16.617Z,99505.80
2023-01-13T20:37:45.411Z,99509.06
2023-01-13T20:40:17.533Z,99514.48
2023-01-13T20:42:47.404Z,99518.32
2023-01-13T20:45:20.333Z,99527.30
2023-01-13T20:47:50.053Z,99527.63
2023-01-13T20:50:22.255Z,99532.17
2023-01-13T20:52:52.141Z,99536.52
2023-01-13T20:55:21.524Z,99545.85
2023-01-13T20:57:50.928Z,99549.30
2023-01-13T21:00:21.867Z,99552.44
2023-01-13T21:02:51.279Z,99550.65
2023-01-13T21:05:20.484Z,99552.30
2023-01-13T21:07:50.187Z,99554.50
2023-01-13T21:10:22.056Z,99555.48
2023-01-13T21:13:09.732Z,99562.40
2023-01-13T21:15:46.656Z,99567.23
2023-01-13T21:18:33.947Z,99566.35
2023-01-13T21:21:11.390Z,99561.87
2023-01-13T21:23:41.954Z,99565.38
2023-01-13T21:26:18.985Z,99569.61
2023-01-13T21:28:48.447Z,99578.27
2023-01-13T21:31:20.895Z,99587.70
2023-01-13T21:33:56.796Z,99598.23
2023-01-13T21:36:27.107Z,99605.56
2023-01-13T21:38:58.345Z,99602.66
2023-01-13T21:41:45.518Z,99604.25
2023-01-13T21:44:34.542Z,99607.59
2023-01-13T21:47:34.141Z,99609.64
2023-01-13T21:50:13.124Z,99610.89
2023-01-13T21:52:46.076Z,99617.52
2023-01-13T21:55:24.800Z,99618.10
2023-01-13T21:57:58.495Z,99610.63
2023-01-13T22:00:33.846Z,99610.78
2023-01-13T22:03:05.127Z,99608.14
2023-01-13T22:05:34.701Z,99611.05
2023-01-13T22:08:13.868Z,99612.29
2023-01-13T22:10:57.086Z,99612.25
2023-01-13T22:13:47.589Z,99608.85
2023-01-13T22:16:20.943Z,99609.21
2023-01-13T22:18:50.158Z,99610.69
2023-01-13T22:21:22.735Z,99610.84
2023-01-13T22:23:51.855Z,99619.02
2023-01-13T22:26:21.630Z,99622.48
2023-01-13T22:28:50.939Z,99622.14
2023-01-13T22:31:23.103Z,99623.77
2023-01-13T22:33:54.410Z,99627.22
2023-01-13T22:36:24.338Z,99630.52
2023-01-13T22:38:55.927Z,99630.00
2023-01-13T22:41:28.395Z,99626.48
2023-01-13T22:43:57.829Z,99626.61
2023-01-13T22:46:27.363Z,99627.73
2023-01-13T22:48:56.403Z,99628.73
2023-01-13T22:51:26.114Z,99634.36
2023-01-13T22:53:55.715Z,99636.27
2023-01-13T22:56:26.553Z,99638.38
2023-01-13T22:58:58.529Z,99637.64
2023-01-13T23:01:32.658Z,99640.91
2023-01-13T23:04:02.182Z,99640.59
2023-01-13T23:06:33.747Z,99645.80
2023-01-13T23:09:02.840Z,99654.23
2023-01-13T23:11:32.253Z,99649.39
2023-01-13T23:14:06.572Z,99645.58
2023-01-13T23:16:42.573Z,99653.27
2023-01-13T23:19:15.641Z,99657.52
2023-01-13T23:21:45.021Z,99655.32
2023-01-13T23:24:14.414Z,99653.95
2023-01-13T23:26:43.819Z,99648.70
2023-01-13T23:29:16.308Z,99658.08
2023-01-13T23:31:49.030Z,99653.15
2023-01-13T23:34:18.602Z,99647.81
2023-01-13T23:36:47.804Z,99648.91
2023-01-13T23:39:20.113Z,99656.29
2023-01-13T23:41:52.626Z,99655.60
2023-01-13T23:44:25.092Z,99656.13
2023-01-13T23:46:54.613Z,99657.54
2023-01-13T23:49:24.698Z,99658.15
2023-01-13T23:51:56.935Z,99654.15
2023-01-13T23:54:28.006Z,99651.23
2023-01-13T23:56:57.028Z,99651.48
2023-01-13T23:59:29.291Z,99653.65
